Terminal Aerodrome Forecast
Issued by NWS Mt. Holly, NJ

Home | Current Version | Previous Version | Text Only | Print | Product List | Glossary On
Versions: 1 2 3 4 5 6 7 8 9 10 11 12 13 14 15 16 17 18 19 20 21 22
000
FTUS41 KPHI 241136
TAFILG
TAF
KILG 241136Z 2412/2512 32010KT P6SM VCSH OVC070
     FM241400 32014G20KT P6SM SCT040 BKN250
     FM241800 30012KT P6SM SCT250
     FM242200 27008KT P6SM FEW250
     FM250200 28005KT P6SM FEW250=

USA.gov is the U.S. government's official web portal to all federal, state and local government web resources and services.